Hauptseite
METAR-TAF:

METAR-TAF

Flughäfen :

Flughafen Győr-Pér

Győr, Ungarn

Breite: 47-37-28N, Länge: 017-48-49E, Höhe: 129 m

Beobachtung

Neuester Wetterbericht von vor 35 Minuten, um 06:45 UTC
Wind 7 kt aus Nord, variierte zwischen Nordwest und Nordost
Temperatur 22°C
Luftfeuchtigkeit 60%
Luftdruck 1017 hPa
Sichtweite 10 km oder mehr
keine Wolken unter 1500 m und keine Kumulonimbus oder Gewitterwolken

METAR: LHPR 240645Z AUTO 35007KT 310V040 CAVOK 22/14 Q1017 NOSIG

Zeit: 09:20 (07:20 UTC)

Prognose

Neuester Wetterbericht von vor 2 Stunden und 5 Minuten, um 05:15 UTC
Gültige Prognose vom 24 um 06 UTC bis 24 um 15 UTC
Wind 5 kt aus Nord
Sichtweite 10 km oder mehr
keine Wolken unter 1500 m und keine Kumulonimbus oder Gewitterwolken
Übergehend zu
vom 24 um 07 UTC bis 24 um 11 UTC
Wind 10 kt aus Nord

TAF: LHPR 240515Z 2406/2415 35005KT CAVOK BECMG 2407/2411 35010KT

Wetterbeobachtungen und Prognosen von mehr als 4000 Flughäfen (METAR und TAF Bericht).

Die verfügbaren Stationen werden durch gelbe und rote Markierungen auf der Karte dargestellt.

Führen Sie die Maus auf sie, um den Namen der Station zu sehen.

Darauf klicken, um die Beobachtung von Wetterbeobachtungen und Prognosen zu sehen.

Um die Karte zu ändern : klicken Sie auf den grünen Tasten mit einem schwarzen Kreuz Zum Vergrößern, auf den grünen Button mit einem Gedankenstrich zu verkleinern, oder auf die grünen Pfeile für benachbarte Karten.


METAR-TAF: